Time;durP1;ratioP1;P1;durP2;ratioP2;P2;SDS_P1;SDS_P2;PMS_P1;PMS_P2;Temp;Humidity;BMP_temperature;BMP_pressure;BME280_temperature;BME280_humidity;BME280_pressure;Samples;Min_cycle;Max_cycle;Signal;HPM_P1;HPM_P2
2022/12/02 00:01:04;;;;;;;36.47;29.43;;;5.30;99.90;;;;;;5053926;28;20240;-77
2022/12/02 00:03:34;;;;;;;32.50;27.00;;;5.30;99.90;;;;;;5071828;28;20189;-77
2022/12/02 00:05:59;;;;;;;32.47;28.17;;;5.20;99.90;;;;;;5053816;28;20244;-76
2022/12/02 00:08:29;;;;;;;35.67;28.17;;;5.30;99.90;;;;;;5071434;28;20240;-76
2022/12/02 00:10:57;;;;;;;34.63;28.03;;;5.30;99.90;;;;;;5053215;28;20186;-76
2022/12/02 00:13:40;;;;;;;33.90;24.50;;;5.30;99.90;;;;;;5053794;28;20658;-77
2022/12/02 00:16:20;;;;;;;31.50;21.53;;;5.30;99.90;;;;;;5071711;28;20623;-76
2022/12/02 00:18:46;;;;;;;32.10;22.17;;;5.30;99.90;;;;;;5071038;28;20188;-77
2022/12/02 00:21:12;;;;;;;34.80;22.30;;;5.20;99.90;;;;;;5054089;28;20578;-76
2022/12/02 00:23:38;;;;;;;31.30;22.13;;;5.20;99.90;;;;;;5053691;28;20180;-77
2022/12/02 00:26:04;;;;;;;35.20;22.53;;;5.20;99.90;;;;;;5071366;28;20180;-76
2022/12/02 00:28:29;;;;;;;38.40;22.20;;;5.20;99.90;;;;;;5104324;22;20228;-74
2022/12/02 00:30:55;;;;;;;30.27;20.87;;;5.20;99.90;;;;;;5096359;28;20189;-73
2022/12/02 00:33:21;;;;;;;32.33;22.53;;;5.20;99.90;;;;;;5085214;28;20189;-75
2022/12/02 00:35:47;;;;;;;34.23;22.13;;;5.20;99.90;;;;;;5071159;28;20185;-75
2022/12/02 00:38:12;;;;;;;30.60;20.87;;;5.20;99.90;;;;;;5070863;28;20580;-75
2022/12/02 00:40:38;;;;;;;33.57;22.27;;;5.20;99.90;;;;;;5070972;28;20261;-75
2022/12/02 00:48:33;;;;;;;35.17;21.20;;;5.20;99.90;;;;;;5070710;28;20205;-74
2022/12/02 00:50:59;;;;;;;35.93;20.20;;;5.20;99.90;;;;;;5070821;28;20212;-75
2022/12/02 00:53:25;;;;;;;38.30;21.90;;;5.20;99.90;;;;;;5069876;28;20653;-75
2022/12/02 00:55:51;;;;;;;30.23;21.37;;;5.10;99.90;;;;;;5070908;28;20280;-75
2022/12/02 00:58:17;;;;;;;34.27;21.03;;;5.10;99.90;;;;;;5074141;28;20197;-74
2022/12/02 01:00:42;;;;;;;32.37;21.77;;;5.10;99.90;;;;;;5073503;28;20695;-73
2022/12/02 01:03:08;;;;;;;32.27;21.60;;;5.10;99.90;;;;;;5075076;28;20188;-75
2022/12/02 01:05:34;;;;;;;34.60;21.43;;;5.10;99.90;;;;;;5074999;28;20207;-74
2022/12/02 01:08:00;;;;;;;34.07;21.70;;;5.20;99.90;;;;;;5073424;28;20673;-75
2022/12/02 01:10:26;;;;;;;32.50;22.00;;;5.20;99.90;;;;;;5075097;28;20169;-74
2022/12/02 01:12:52;;;;;;;33.30;22.60;;;5.20;99.90;;;;;;5074679;28;20178;-75
2022/12/02 01:15:17;;;;;;;34.40;22.27;;;5.20;99.90;;;;;;5073685;28;20250;-74
2022/12/02 01:17:43;;;;;;;35.47;23.20;;;5.20;99.90;;;;;;5074267;28;20558;-74
2022/12/02 01:20:10;;;;;;;33.60;22.77;;;5.20;99.90;;;;;;5074718;28;20614;-74
2022/12/02 01:22:36;;;;;;;33.57;22.50;;;5.20;99.90;;;;;;5074455;28;20270;-75
2022/12/02 01:25:01;;;;;;;33.77;22.07;;;5.20;99.90;;;;;;5073421;28;20666;-74
2022/12/02 01:27:27;;;;;;;31.20;20.73;;;5.20;99.90;;;;;;5071708;28;20707;-74
2022/12/02 01:29:53;;;;;;;35.77;20.97;;;5.20;99.90;;;;;;5074308;28;20617;-74
2022/12/02 01:32:19;;;;;;;34.23;19.80;;;5.20;99.90;;;;;;5074368;28;20272;-74
2022/12/02 01:34:45;;;;;;;35.33;21.23;;;5.20;99.90;;;;;;5073696;28;20188;-75
2022/12/02 01:37:11;;;;;;;32.87;21.77;;;5.20;99.90;;;;;;5072970;28;20209;-75
2022/12/02 01:39:37;;;;;;;32.37;22.53;;;5.20;99.90;;;;;;5086407;28;20185;-73
2022/12/02 01:42:03;;;;;;;35.23;22.03;;;5.20;99.90;;;;;;5088849;28;20218;-74
2022/12/02 01:44:29;;;;;;;29.07;22.43;;;5.30;99.90;;;;;;5074216;28;20180;-74
2022/12/02 01:46:55;;;;;;;30.57;21.37;;;5.30;99.90;;;;;;5073779;28;20201;-75
2022/12/02 01:49:21;;;;;;;30.13;22.47;;;5.30;99.90;;;;;;5072786;28;20177;-75
2022/12/02 01:51:47;;;;;;;35.10;22.47;;;5.30;99.90;;;;;;5074061;28;20185;-74
2022/12/02 01:54:13;;;;;;;36.67;22.30;;;5.20;99.90;;;;;;5073887;28;21005;-74
2022/12/02 01:56:39;;;;;;;36.40;23.03;;;5.20;99.90;;;;;;5073701;28;20182;-75
2022/12/02 01:59:05;;;;;;;35.67;23.20;;;5.20;99.90;;;;;;5072244;28;20194;-75
2022/12/02 02:01:33;;;;;;;29.10;21.33;;;5.20;99.90;;;;;;5073849;28;20216;-74
2022/12/02 02:04:01;;;;;;;31.93;22.07;;;5.20;99.90;;;;;;5073629;28;20181;-74
2022/12/02 02:06:35;;;;;;;34.63;22.17;;;5.20;99.90;;;;;;5073643;28;20208;-74
2022/12/02 02:09:02;;;;;;;30.67;21.40;;;5.20;99.90;;;;;;5072081;28;20188;-74
2022/12/02 02:11:28;;;;;;;35.40;21.60;;;5.20;99.90;;;;;;5073682;28;20188;-75
2022/12/02 02:13:55;;;;;;;31.90;22.33;;;5.20;99.90;;;;;;5072538;28;20188;-75
2022/12/02 02:16:21;;;;;;;32.43;20.67;;;5.20;99.90;;;;;;5073491;28;20269;-73
2022/12/02 02:18:46;;;;;;;33.73;21.60;;;5.20;99.90;;;;;;5071721;28;20305;-75
2022/12/02 02:21:33;;;;;;;32.23;21.03;;;5.20;99.90;;;;;;5073077;28;20294;-75
2022/12/02 02:23:59;;;;;;;30.67;20.47;;;5.20;99.90;;;;;;5073265;28;20218;-75
2022/12/02 02:26:25;;;;;;;30.53;20.30;;;5.10;99.90;;;;;;5071965;28;20215;-75
2022/12/02 02:28:52;;;;;;;35.23;22.63;;;5.20;99.90;;;;;;5072567;28;20213;-75
2022/12/02 02:31:18;;;;;;;33.73;21.43;;;5.10;99.90;;;;;;5071962;28;20264;-74
2022/12/02 02:33:44;;;;;;;29.67;20.37;;;5.10;99.90;;;;;;5071804;28;20275;-74
2022/12/02 02:36:10;;;;;;;34.53;21.27;;;5.10;99.90;;;;;;5072804;28;20177;-74
2022/12/02 02:38:36;;;;;;;31.67;20.83;;;5.10;99.90;;;;;;5073602;28;20574;-75
2022/12/02 02:41:03;;;;;;;29.57;20.43;;;5.10;99.90;;;;;;5071991;28;20309;-75
2022/12/02 02:43:29;;;;;;;35.57;22.37;;;5.10;99.90;;;;;;5073130;28;20181;-74
2022/12/02 02:45:57;;;;;;;37.03;23.07;;;5.10;99.90;;;;;;5071795;28;20173;-75
2022/12/02 02:48:24;;;;;;;32.80;21.60;;;5.10;99.90;;;;;;5081391;28;20218;-74
2022/12/02 02:50:50;;;;;;;31.20;21.97;;;5.00;99.90;;;;;;5096615;28;20208;-73
2022/12/02 02:53:17;;;;;;;33.17;22.17;;;5.00;99.90;;;;;;5077608;28;20193;-75
2022/12/02 02:55:43;;;;;;;33.07;21.97;;;5.00;99.90;;;;;;5072883;28;20220;-74
2022/12/02 02:58:17;;;;;;;31.27;20.67;;;5.00;99.90;;;;;;5072249;28;20214;-76
2022/12/02 03:00:47;;;;;;;29.27;20.83;;;5.00;99.90;;;;;;5072359;28;20190;-74
2022/12/02 03:03:16;;;;;;;32.50;21.07;;;5.00;99.90;;;;;;5051208;28;20668;-74
2022/12/02 03:05:43;;;;;;;30.20;20.00;;;5.00;99.90;;;;;;5052380;28;20186;-74
2022/12/02 03:08:09;;;;;;;30.87;20.30;;;5.00;99.90;;;;;;5051923;28;20198;-76
2022/12/02 03:10:35;;;;;;;28.77;20.47;;;5.00;99.90;;;;;;5051240;28;20261;-75
2022/12/02 03:13:01;;;;;;;35.73;21.87;;;5.10;99.90;;;;;;5052666;28;20609;-74
2022/12/02 03:15:28;;;;;;;28.07;20.50;;;5.10;99.90;;;;;;5055380;28;20248;-74
2022/12/02 03:17:54;;;;;;;30.27;21.43;;;5.10;99.90;;;;;;5071330;28;20201;-74
2022/12/02 03:20:22;;;;;;;32.20;21.40;;;5.10;99.90;;;;;;5071827;28;20784;-74
2022/12/02 03:22:48;;;;;;;31.77;21.80;;;5.20;99.90;;;;;;5084804;28;20221;-74
2022/12/02 03:25:14;;;;;;;32.43;21.57;;;5.10;99.90;;;;;;5082837;28;20256;-74
2022/12/02 03:27:40;;;;;;;36.23;22.53;;;5.10;99.90;;;;;;5073152;28;20286;-74
2022/12/02 03:30:06;;;;;;;30.07;22.13;;;5.10;99.90;;;;;;5066229;28;20193;-74
2022/12/02 03:32:32;;;;;;;31.00;22.53;;;5.10;99.90;;;;;;5071190;28;20251;-76
2022/12/02 03:34:59;;;;;;;32.63;22.17;;;5.10;99.90;;;;;;5070464;28;20645;-75
2022/12/02 03:37:25;;;;;;;35.17;21.67;;;5.10;99.90;;;;;;5069900;28;20289;-75
2022/12/02 03:39:51;;;;;;;32.73;22.63;;;5.10;99.90;;;;;;5071812;28;20265;-74
2022/12/02 03:42:18;;;;;;;34.40;24.60;;;5.10;99.90;;;;;;5071425;28;20237;-74
2022/12/02 03:44:43;;;;;;;37.80;30.83;;;5.10;99.90;;;;;;5071447;28;20177;-74
2022/12/02 03:47:10;;;;;;;40.93;36.57;;;5.10;99.90;;;;;;5069779;28;20211;-74
2022/12/02 03:49:35;;;;;;;39.30;35.23;;;5.00;99.90;;;;;;5071568;28;20577;-74
2022/12/02 03:52:01;;;;;;;37.83;32.30;;;5.00;99.90;;;;;;5070033;28;20195;-73
2022/12/02 03:54:27;;;;;;;42.70;28.87;;;5.00;99.90;;;;;;5071209;28;20269;-74
2022/12/02 03:56:53;;;;;;;34.57;25.60;;;4.90;99.90;;;;;;5069723;28;20201;-75
2022/12/02 03:59:28;;;;;;;35.13;22.03;;;4.90;99.90;;;;;;5069863;28;20872;-75
2022/12/02 04:01:54;;;;;;;32.33;20.47;;;4.90;99.90;;;;;;5069871;28;20712;-74
2022/12/02 04:04:20;;;;;;;37.53;21.90;;;4.90;99.90;;;;;;5070248;28;20233;-74
2022/12/02 04:06:46;;;;;;;38.13;22.77;;;4.90;99.90;;;;;;5069789;28;20597;-74
2022/12/02 04:09:12;;;;;;;35.93;23.40;;;4.90;99.90;;;;;;5069980;28;20573;-74
2022/12/02 04:11:38;;;;;;;34.97;23.80;;;4.90;99.90;;;;;;5071027;28;20193;-74
2022/12/02 04:14:03;;;;;;;36.57;25.43;;;4.90;99.90;;;;;;5071126;28;20666;-75
2022/12/02 04:16:29;;;;;;;39.90;23.30;;;4.90;99.90;;;;;;5071006;28;20200;-75
2022/12/02 04:18:55;;;;;;;32.93;23.87;;;4.90;99.90;;;;;;5070919;28;20184;-75
2022/12/02 04:21:23;;;;;;;34.73;23.27;;;4.90;99.90;;;;;;5069771;28;20693;-74
2022/12/02 04:23:51;;;;;;;33.57;21.33;;;4.80;99.90;;;;;;5069816;28;20585;-75
2022/12/02 04:26:17;;;;;;;33.47;21.43;;;4.80;99.90;;;;;;5069636;28;20276;-75
2022/12/02 04:28:44;;;;;;;38.77;22.30;;;4.80;99.90;;;;;;5070342;28;20212;-75
2022/12/02 04:31:09;;;;;;;35.07;21.17;;;4.80;99.90;;;;;;5069868;28;20188;-75
2022/12/02 04:33:35;;;;;;;35.13;21.87;;;4.80;99.90;;;;;;5070796;28;20646;-74
2022/12/02 04:36:01;;;;;;;35.80;21.10;;;4.90;99.90;;;;;;5070734;28;20193;-75
2022/12/02 04:38:27;;;;;;;35.87;21.73;;;4.90;99.90;;;;;;5069002;28;20201;-74
2022/12/02 04:40:53;;;;;;;36.93;21.80;;;4.80;99.90;;;;;;5070604;28;20723;-75
2022/12/02 04:43:18;;;;;;;35.30;22.03;;;4.80;99.90;;;;;;5070691;28;20518;-73
2022/12/02 04:45:44;;;;;;;32.83;20.53;;;4.90;99.90;;;;;;5069553;28;20182;-74
2022/12/02 04:48:10;;;;;;;37.40;21.40;;;4.90;99.90;;;;;;5070378;28;20189;-75
2022/12/02 04:50:36;;;;;;;34.07;21.00;;;4.90;99.90;;;;;;5070807;28;20173;-74
2022/12/02 04:53:01;;;;;;;33.70;21.00;;;4.90;99.90;;;;;;5069702;28;20178;-75
2022/12/02 04:55:27;;;;;;;35.40;23.13;;;4.90;99.90;;;;;;5070456;28;20188;-74
2022/12/02 04:57:53;;;;;;;34.10;23.50;;;4.90;99.90;;;;;;5068992;28;20194;-75
2022/12/02 05:00:19;;;;;;;37.07;22.03;;;4.80;99.90;;;;;;5069373;28;20181;-73
2022/12/02 05:02:45;;;;;;;36.43;21.77;;;4.80;99.90;;;;;;5070525;28;20212;-74
2022/12/02 05:05:11;;;;;;;32.60;20.27;;;4.90;99.90;;;;;;5069753;28;20181;-74
2022/12/02 05:07:37;;;;;;;37.07;21.27;;;4.80;99.90;;;;;;5082729;28;20211;-73
2022/12/02 05:10:03;;;;;;;35.40;21.73;;;4.90;99.90;;;;;;5087931;28;20185;-73
2022/12/02 05:12:29;;;;;;;34.10;21.30;;;4.80;99.90;;;;;;5092888;28;20256;-73
2022/12/02 05:14:55;;;;;;;32.33;20.70;;;4.80;99.90;;;;;;5076060;28;20680;-73
2022/12/02 05:17:21;;;;;;;35.53;20.73;;;4.80;99.90;;;;;;5070310;28;20201;-72
2022/12/02 05:19:47;;;;;;;36.10;20.73;;;4.80;99.90;;;;;;5069282;28;20192;-74
2022/12/02 05:22:12;;;;;;;33.83;20.77;;;4.80;99.90;;;;;;5070406;28;20213;-74
2022/12/02 05:24:39;;;;;;;31.33;21.30;;;4.80;99.90;;;;;;5070235;28;20296;-73
2022/12/02 05:27:05;;;;;;;33.70;20.87;;;4.80;99.90;;;;;;5068780;28;20263;-73
2022/12/02 05:29:31;;;;;;;32.10;22.00;;;4.80;99.90;;;;;;5070433;28;20268;-74
2022/12/02 05:31:56;;;;;;;34.43;25.07;;;4.80;99.90;;;;;;5070390;28;20303;-74
2022/12/02 05:34:22;;;;;;;33.20;23.27;;;4.80;99.90;;;;;;5069954;28;20234;-73
2022/12/02 05:36:48;;;;;;;36.73;23.13;;;4.80;99.90;;;;;;5066814;28;20598;-74
2022/12/02 05:39:14;;;;;;;33.60;22.47;;;4.80;99.90;;;;;;5070135;28;20276;-74
2022/12/02 05:41:40;;;;;;;34.53;22.37;;;4.80;99.90;;;;;;5070209;28;20212;-74
2022/12/02 05:44:38;;;;;;;34.40;21.43;;;4.80;99.90;;;;;;5071604;28;20201;-74
2022/12/02 05:47:09;;;;;;;35.80;21.10;;;4.80;99.90;;;;;;5019891;28;20221;-74
2022/12/02 05:49:37;;;;;;;34.70;21.60;;;4.80;99.90;;;;;;5054302;28;20183;-75
2022/12/02 05:52:15;;;;;;;38.97;22.37;;;4.80;99.90;;;;;;5054580;28;20584;-74
2022/12/02 05:54:41;;;;;;;34.43;22.53;;;4.80;99.90;;;;;;5066276;28;20186;-74
2022/12/02 05:57:10;;;;;;;33.70;22.67;;;4.80;99.90;;;;;;5073351;28;20205;-75
2022/12/02 05:59:36;;;;;;;34.47;23.30;;;4.70;99.90;;;;;;5073660;28;20192;-75
2022/12/02 06:02:08;;;;;;;39.03;24.07;;;4.80;99.90;;;;;;5073038;28;20700;-75
2022/12/02 06:04:35;;;;;;;36.17;22.97;;;4.70;99.90;;;;;;5073201;28;20207;-75
2022/12/02 06:07:09;;;;;;;35.10;20.17;;;4.70;99.90;;;;;;5073511;28;20756;-71
2022/12/02 06:09:34;;;;;;;33.67;21.50;;;4.70;99.90;;;;;;5072199;28;20182;-71
2022/12/02 06:12:01;;;;;;;34.07;21.73;;;4.70;99.90;;;;;;5073288;28;20181;-71
2022/12/02 06:14:31;;;;;;;34.53;23.97;;;4.70;99.90;;;;;;5073231;28;20272;-72
2022/12/02 06:17:03;;;;;;;37.60;24.93;;;4.70;99.90;;;;;;5073043;28;20693;-71
2022/12/02 06:19:43;;;;;;;37.93;27.13;;;4.70;99.90;;;;;;5073052;28;20225;-71
2022/12/02 06:22:32;;;;;;;35.37;24.63;;;4.70;99.90;;;;;;5071310;28;20230;-71
2022/12/02 06:25:05;;;;;;;35.60;26.03;;;4.70;99.90;;;;;;5072488;28;20288;-71
2022/12/02 06:27:32;;;;;;;41.37;28.87;;;4.70;99.90;;;;;;5093445;22;20232;-70
2022/12/02 06:30:20;;;;;;;44.03;34.27;;;4.70;99.90;;;;;;5072681;28;20179;-71
2022/12/02 06:32:52;;;;;;;38.43;32.03;;;4.70;99.90;;;;;;5069676;28;20238;-69
2022/12/02 06:35:27;;;;;;;47.63;39.43;;;4.70;99.90;;;;;;5069382;28;20282;-69
2022/12/02 06:37:56;;;;;;;42.80;37.10;;;4.70;99.90;;;;;;5063448;28;20212;-69
2022/12/02 06:40:32;;;;;;;48.93;39.10;;;4.70;99.90;;;;;;5052531;28;20592;-69
2022/12/02 06:43:00;;;;;;;42.93;37.77;;;4.70;99.90;;;;;;5052092;28;20790;-68
2022/12/02 06:45:33;;;;;;;49.50;37.17;;;4.70;99.90;;;;;;5051308;28;20174;-69
2022/12/02 06:48:26;;;;;;;48.10;40.53;;;4.80;99.90;;;;;;5051401;28;20225;-69
2022/12/02 06:50:54;;;;;;;44.10;34.80;;;4.80;99.90;;;;;;5051044;28;20188;-73
2022/12/02 06:53:31;;;;;;;39.27;29.13;;;4.80;99.90;;;;;;5030896;28;20240;-70
2022/12/02 06:56:19;;;;;;;37.50;27.33;;;4.80;99.90;;;;;;5033935;28;20178;-69
2022/12/02 06:58:56;;;;;;;39.23;25.70;;;4.80;99.90;;;;;;5051504;28;20614;-70
2022/12/02 07:01:37;;;;;;;39.57;24.40;;;4.80;99.90;;;;;;5051991;28;20205;-69
2022/12/02 07:04:08;;;;;;;37.37;27.17;;;4.80;99.90;;;;;;5052189;28;20508;-69
2022/12/02 07:06:43;;;;;;;36.47;25.13;;;4.80;99.90;;;;;;5052092;28;20703;-69
2022/12/02 07:09:19;;;;;;;42.23;28.30;;;4.80;99.90;;;;;;5052007;28;20273;-70
2022/12/02 07:11:50;;;;;;;44.13;30.10;;;4.80;99.90;;;;;;5051803;28;20186;-70
2022/12/02 07:14:45;;;;;;;42.63;28.70;;;4.80;99.90;;;;;;5052193;28;20239;-70
2022/12/02 07:17:29;;;;;;;39.83;34.47;;;4.80;99.90;;;;;;5051772;28;20277;-70
2022/12/02 07:20:06;;;;;;;38.53;31.20;;;4.80;99.90;;;;;;5052157;28;20189;-70
2022/12/02 07:22:56;;;;;;;41.83;33.37;;;4.80;99.90;;;;;;5052333;28;20216;-70
2022/12/02 07:25:31;;;;;;;47.47;42.40;;;4.80;99.90;;;;;;5053180;28;20549;-70
2022/12/02 07:27:57;;;;;;;42.23;34.83;;;4.80;99.90;;;;;;5051783;28;20611;-73
2022/12/02 07:30:35;;;;;;;44.27;37.63;;;4.80;99.90;;;;;;5052204;28;20178;-71
2022/12/02 07:33:02;;;;;;;38.03;29.20;;;4.80;99.90;;;;;;5042886;28;20177;-71
2022/12/02 07:35:27;;;;;;;40.80;29.63;;;4.80;99.90;;;;;;5051785;28;20170;-72
2022/12/02 07:37:53;;;;;;;36.33;25.27;;;4.80;99.90;;;;;;5049953;28;20275;-70
2022/12/02 07:40:20;;;;;;;40.10;24.83;;;4.90;99.90;;;;;;5050347;28;20194;-70
2022/12/02 07:42:46;;;;;;;36.00;23.57;;;4.90;99.90;;;;;;5051612;28;20710;-70
2022/12/02 07:45:14;;;;;;;38.77;24.03;;;4.90;99.90;;;;;;5051491;28;20181;-70
2022/12/02 07:47:40;;;;;;;39.70;23.20;;;4.90;99.90;;;;;;5051184;28;20236;-70
2022/12/02 07:50:07;;;;;;;41.77;22.77;;;4.90;99.90;;;;;;5050334;28;20217;-70
2022/12/02 07:52:33;;;;;;;40.40;24.37;;;4.90;99.90;;;;;;5052528;28;20182;-69
2022/12/02 07:55:00;;;;;;;33.47;21.23;;;4.90;99.90;;;;;;5051854;28;20174;-70
2022/12/02 07:57:26;;;;;;;36.63;23.63;;;4.90;99.90;;;;;;5036486;28;20210;-69
2022/12/02 07:59:52;;;;;;;38.70;24.40;;;4.90;99.90;;;;;;5050282;28;20273;-70
2022/12/02 08:02:18;;;;;;;37.97;25.37;;;4.90;99.90;;;;;;5050145;28;20217;-71
2022/12/02 08:04:44;;;;;;;39.63;27.20;;;4.90;99.90;;;;;;5051203;28;20174;-71
2022/12/02 08:07:10;;;;;;;48.57;31.73;;;4.90;99.90;;;;;;5049138;28;20201;-70
2022/12/02 08:09:36;;;;;;;39.00;26.10;;;4.90;99.90;;;;;;5050921;28;20659;-69
2022/12/02 08:12:02;;;;;;;36.97;26.80;;;4.90;99.90;;;;;;5049983;28;20218;-70
2022/12/02 08:14:27;;;;;;;34.53;25.53;;;5.00;99.90;;;;;;5049920;28;20706;-70
2022/12/02 08:16:53;;;;;;;39.30;27.83;;;5.00;99.90;;;;;;5050509;28;20333;-69
2022/12/02 08:19:19;;;;;;;37.47;25.37;;;5.00;99.90;;;;;;5051219;28;20205;-71
2022/12/02 08:21:45;;;;;;;41.73;25.03;;;5.00;99.90;;;;;;5051122;28;20300;-70
2022/12/02 08:24:10;;;;;;;40.47;25.70;;;5.00;99.90;;;;;;5051270;28;20181;-70
2022/12/02 08:26:36;;;;;;;40.17;25.00;;;5.10;99.90;;;;;;5051411;28;20255;-69
2022/12/02 08:29:03;;;;;;;40.83;27.63;;;5.10;99.90;;;;;;5051045;28;20625;-70
2022/12/02 08:31:28;;;;;;;37.30;23.37;;;5.10;99.90;;;;;;5050204;28;20225;-70
2022/12/02 08:33:54;;;;;;;43.10;24.87;;;5.10;99.90;;;;;;5051158;28;20801;-69
2022/12/02 08:36:21;;;;;;;40.53;24.70;;;5.10;99.90;;;;;;5050770;28;20559;-69
2022/12/02 08:38:47;;;;;;;35.77;22.37;;;5.10;99.90;;;;;;5050897;28;20646;-70
2022/12/02 08:41:14;;;;;;;39.93;23.97;;;5.10;99.90;;;;;;5051009;28;20209;-70
2022/12/02 08:43:40;;;;;;;35.07;23.17;;;5.10;99.90;;;;;;5035897;28;20179;-70
2022/12/02 08:46:06;;;;;;;37.97;22.80;;;5.10;99.90;;;;;;5040027;28;20178;-70
2022/12/02 08:48:32;;;;;;;35.53;21.93;;;5.20;99.90;;;;;;5050547;28;20247;-70
2022/12/02 08:50:58;;;;;;;40.40;23.53;;;5.10;99.90;;;;;;5049971;28;20261;-70
2022/12/02 08:53:24;;;;;;;32.27;22.87;;;5.10;99.90;;;;;;5050976;28;20250;-70
2022/12/02 08:55:50;;;;;;;37.53;22.53;;;5.20;99.90;;;;;;5050592;28;20178;-71
2022/12/02 08:58:16;;;;;;;38.70;23.43;;;5.20;99.90;;;;;;5043098;28;20717;-68
2022/12/02 09:00:41;;;;;;;37.47;22.97;;;5.30;99.90;;;;;;5029672;28;20296;-69
2022/12/02 09:03:08;;;;;;;37.77;22.93;;;5.30;99.90;;;;;;5029958;28;20175;-69
2022/12/02 09:05:35;;;;;;;33.30;21.97;;;5.30;99.90;;;;;;5030719;28;20209;-70
2022/12/02 09:08:02;;;;;;;34.97;21.73;;;5.30;99.90;;;;;;5030444;28;20640;-70
2022/12/02 09:10:28;;;;;;;37.23;22.40;;;5.40;99.90;;;;;;5030918;28;20183;-70
2022/12/02 09:12:53;;;;;;;30.60;21.27;;;5.40;99.90;;;;;;5030848;28;20270;-70
2022/12/02 09:15:20;;;;;;;29.20;18.67;;;5.40;99.90;;;;;;5047943;28;20191;-70
2022/12/02 09:17:46;;;;;;;29.67;19.30;;;5.40;99.90;;;;;;5051461;28;20286;-70
2022/12/02 09:20:13;;;;;;;28.93;19.33;;;5.40;99.90;;;;;;5054768;28;20224;-71
2022/12/02 09:22:39;;;;;;;28.70;18.67;;;5.40;99.90;;;;;;5053676;28;20205;-70
2022/12/02 09:25:05;;;;;;;26.87;18.23;;;5.40;99.90;;;;;;5054510;28;20184;-70
2022/12/02 09:27:31;;;;;;;25.63;17.40;;;5.50;99.90;;;;;;5058525;28;20205;-71
2022/12/02 09:29:57;;;;;;;29.37;18.53;;;5.50;99.90;;;;;;5053020;28;20202;-70
2022/12/02 09:32:23;;;;;;;27.33;17.90;;;5.50;99.90;;;;;;5054351;28;20198;-71
2022/12/02 09:34:49;;;;;;;24.83;17.43;;;5.50;99.90;;;;;;5054326;28;20221;-72
2022/12/02 09:37:14;;;;;;;26.10;17.83;;;5.50;99.90;;;;;;5053972;28;20244;-69
2022/12/02 09:39:40;;;;;;;23.47;17.50;;;5.50;99.90;;;;;;5052786;28;20225;-70
2022/12/02 09:42:08;;;;;;;27.77;17.97;;;5.50;99.90;;;;;;5049315;28;20206;-70
2022/12/02 09:44:36;;;;;;;19.77;14.30;;;5.50;99.90;;;;;;5035763;28;20298;-70
2022/12/02 09:47:02;;;;;;;13.87;11.67;;;5.50;99.90;;;;;;5032699;28;20193;-70
2022/12/02 09:49:27;;;;;;;14.70;12.00;;;5.40;99.90;;;;;;5047059;28;20183;-70
2022/12/02 09:51:58;;;;;;;14.00;12.73;;;5.30;99.90;;;;;;5052740;28;20244;-71
2022/12/02 09:54:24;;;;;;;12.60;11.50;;;5.20;99.90;;;;;;5054104;28;20550;-70
2022/12/02 09:56:50;;;;;;;12.77;11.20;;;5.10;99.90;;;;;;5053693;28;20178;-70
2022/12/02 09:59:16;;;;;;;12.37;10.43;;;5.10;99.90;;;;;;5053594;28;20198;-71
2022/12/02 10:01:45;;;;;;;10.70;9.67;;;5.00;99.90;;;;;;5049395;28;20198;-70
2022/12/02 10:04:17;;;;;;;10.23;9.23;;;5.00;99.90;;;;;;5053840;28;20546;-70
2022/12/02 10:06:43;;;;;;;10.20;9.20;;;5.00;99.90;;;;;;5053981;28;20593;-70
2022/12/02 10:09:18;;;;;;;9.47;8.53;;;4.90;99.90;;;;;;5053933;28;20202;-69
2022/12/02 10:11:44;;;;;;;11.20;10.00;;;4.90;99.90;;;;;;5052691;28;20550;-69
2022/12/02 10:14:14;;;;;;;11.40;10.00;;;5.00;99.90;;;;;;5053620;28;20260;-70
2022/12/02 10:16:40;;;;;;;11.53;10.33;;;5.00;99.90;;;;;;5053641;28;20608;-71
2022/12/02 10:19:09;;;;;;;12.33;11.10;;;5.10;99.90;;;;;;5051443;28;20205;-71
2022/12/02 10:21:35;;;;;;;13.33;11.83;;;5.10;99.90;;;;;;5039803;28;20700;-71
2022/12/02 10:24:04;;;;;;;12.47;11.07;;;5.10;99.90;;;;;;5037018;28;20265;-71
2022/12/02 10:26:44;;;;;;;12.40;11.03;;;5.10;99.90;;;;;;5032664;28;20190;-71
2022/12/02 10:29:17;;;;;;;15.10;13.50;;;5.10;99.90;;;;;;5030258;28;20217;-72
2022/12/02 10:32:00;;;;;;;11.70;10.47;;;5.10;99.90;;;;;;5034870;28;20210;-71
2022/12/02 10:34:27;;;;;;;12.03;10.83;;;5.10;99.90;;;;;;5052477;28;20200;-70
2022/12/02 10:36:53;;;;;;;16.67;13.20;;;5.10;99.90;;;;;;5053312;28;20189;-70
2022/12/02 10:39:35;;;;;;;18.43;15.20;;;5.10;99.90;;;;;;5032150;28;20277;-70
2022/12/02 10:42:03;;;;;;;18.17;13.60;;;5.20;99.90;;;;;;5037462;28;20271;-71
2022/12/02 10:44:38;;;;;;;17.77;13.87;;;5.20;99.90;;;;;;5035352;28;20225;-70
2022/12/02 10:47:23;;;;;;;26.37;19.70;;;5.20;99.90;;;;;;5033871;28;20186;-70
2022/12/02 10:49:57;;;;;;;22.73;15.90;;;5.20;99.90;;;;;;5039202;28;20182;-71
2022/12/02 10:52:34;;;;;;;18.33;14.63;;;5.30;99.90;;;;;;5039742;28;20182;-71
2022/12/02 10:55:01;;;;;;;21.40;14.07;;;5.40;99.90;;;;;;5039463;28;20302;-71
2022/12/02 10:57:29;;;;;;;17.73;13.73;;;5.40;99.90;;;;;;5044174;28;20233;-69
2022/12/02 10:59:57;;;;;;;18.53;13.27;;;5.40;99.90;;;;;;5052774;28;20186;-70
2022/12/02 11:02:44;;;;;;;18.40;13.57;;;5.40;99.90;;;;;;5051081;28;20198;-71
2022/12/02 11:05:17;;;;;;;17.90;14.67;;;5.50;99.90;;;;;;5053052;28;20189;-69
2022/12/02 11:08:06;;;;;;;20.07;17.97;;;5.60;99.90;;;;;;5050911;28;20212;-69
2022/12/02 11:10:38;;;;;;;20.97;16.57;;;5.50;99.90;;;;;;5052747;28;20213;-69
2022/12/02 11:13:12;;;;;;;20.13;16.90;;;5.50;99.90;;;;;;5052605;28;20171;-70
2022/12/02 11:15:40;;;;;;;16.57;14.43;;;5.50;99.90;;;;;;5052866;28;20161;-70
2022/12/02 11:18:08;;;;;;;17.20;15.23;;;5.50;99.90;;;;;;5048140;28;20205;-70
2022/12/02 11:20:39;;;;;;;17.43;14.90;;;5.50;99.90;;;;;;5032529;28;20664;-70
2022/12/02 11:23:19;;;;;;;19.00;15.40;;;5.60;99.90;;;;;;5045510;28;20209;-69
2022/12/02 11:25:46;;;;;;;37.47;28.73;;;5.60;99.90;;;;;;5052323;28;20721;-70
2022/12/02 11:28:27;;;;;;;21.07;17.87;;;5.60;99.90;;;;;;5051596;28;20240;-69
2022/12/02 11:31:08;;;;;;;22.43;15.40;;;5.50;99.90;;;;;;5050927;28;20188;-70
2022/12/02 11:33:54;;;;;;;15.00;13.47;;;5.60;99.90;;;;;;5051859;28;20178;-70
2022/12/02 11:36:28;;;;;;;17.20;13.40;;;5.70;99.90;;;;;;5052143;28;20174;-71
2022/12/02 11:38:55;;;;;;;18.97;13.97;;;5.60;99.90;;;;;;5050532;28;20210;-71
2022/12/02 11:41:23;;;;;;;19.07;15.60;;;5.70;99.90;;;;;;5051528;28;20230;-70
2022/12/02 11:43:52;;;;;;;18.43;15.47;;;5.70;99.90;;;;;;5050579;28;20179;-70
2022/12/02 11:46:44;;;;;;;18.73;15.23;;;5.70;99.90;;;;;;5044558;28;20178;-70
2022/12/02 11:49:27;;;;;;;19.97;14.10;;;5.60;99.90;;;;;;5032892;28;20195;-73
2022/12/02 11:52:00;;;;;;;15.07;13.47;;;5.60;99.90;;;;;;5032921;28;20194;-74
2022/12/02 11:54:26;;;;;;;14.57;13.07;;;5.70;99.90;;;;;;5051824;28;20673;-73
2022/12/02 11:56:53;;;;;;;17.93;13.27;;;5.60;99.90;;;;;;5050404;28;20208;-73
2022/12/02 11:59:24;;;;;;;15.43;11.90;;;5.60;99.90;;;;;;5051667;28;20189;-75
2022/12/02 12:02:05;;;;;;;18.50;12.60;;;5.60;99.90;;;;;;5051553;28;20701;-76
2022/12/02 12:04:30;;;;;;;15.73;12.40;;;5.60;99.90;;;;;;5042276;28;20175;-76
2022/12/02 12:06:58;;;;;;;14.10;11.43;;;5.60;99.90;;;;;;5031418;28;20247;-77
2022/12/02 12:09:26;;;;;;;13.63;11.77;;;5.60;99.90;;;;;;5031100;28;20178;-76
2022/12/02 12:12:11;;;;;;;13.60;12.20;;;5.60;99.90;;;;;;5035852;28;20175;-77
2022/12/02 12:14:54;;;;;;;15.37;12.97;;;5.60;99.90;;;;;;5055140;28;20659;-77
2022/12/02 12:17:38;;;;;;;13.10;11.70;;;5.60;99.90;;;;;;5051271;28;20209;-77
2022/12/02 12:20:25;;;;;;;14.47;11.73;;;5.60;99.90;;;;;;5051783;28;20178;-77
2022/12/02 12:22:51;;;;;;;11.37;10.27;;;5.60;99.90;;;;;;5045294;28;20594;-77
2022/12/02 12:25:40;;;;;;;14.50;13.10;;;5.60;99.90;;;;;;5045829;28;20175;-77
2022/12/02 12:28:28;;;;;;;12.77;11.50;;;5.60;99.90;;;;;;5092692;22;20208;-77
2022/12/02 12:30:54;;;;;;;14.60;13.03;;;5.60;99.90;;;;;;5088604;28;20184;-78
2022/12/02 12:33:20;;;;;;;16.37;14.67;;;5.60;99.90;;;;;;5092511;28;20584;-77
2022/12/02 12:35:47;;;;;;;14.53;13.10;;;5.60;99.90;;;;;;5074038;28;20181;-76
2022/12/02 12:38:12;;;;;;;15.90;14.27;;;5.60;99.90;;;;;;5099198;28;20203;-76
2022/12/02 12:40:38;;;;;;;28.93;23.10;;;5.50;99.90;;;;;;5106462;28;20558;-76
2022/12/02 12:43:04;;;;;;;14.50;12.70;;;5.60;99.90;;;;;;5099233;28;20211;-76
2022/12/02 12:45:30;;;;;;;12.27;11.00;;;5.60;99.90;;;;;;5094643;28;20653;-76
2022/12/02 12:47:55;;;;;;;12.20;11.20;;;5.60;99.90;;;;;;5093614;28;20200;-76
2022/12/02 12:50:21;;;;;;;11.33;10.40;;;5.60;99.90;;;;;;5091693;28;20184;-77
2022/12/02 12:52:47;;;;;;;10.33;9.50;;;5.60;99.90;;;;;;5107519;28;20184;-76